sensor_id;sensor_type;location;lat;lon;timestamp;P1;durP1;ratioP1;P2;durP2;ratioP2
10667;SDS011;5382;42.136;24.796;2023-03-23T00:00:58;19.88;;;13.30;;
10667;SDS011;5382;42.136;24.796;2023-03-23T00:03:27;20.55;;;13.68;;
10667;SDS011;5382;42.136;24.796;2023-03-23T00:05:57;23.60;;;14.63;;
10667;SDS011;5382;42.136;24.796;2023-03-23T00:08:30;19.98;;;13.68;;
10667;SDS011;5382;42.136;24.796;2023-03-23T00:10:57;22.17;;;16.23;;
10667;SDS011;5382;42.136;24.796;2023-03-23T00:13:27;23.02;;;14.80;;
10667;SDS011;5382;42.136;24.796;2023-03-23T00:15:56;21.90;;;14.57;;
10667;SDS011;5382;42.136;24.796;2023-03-23T00:18:23;23.00;;;14.00;;
10667;SDS011;5382;42.136;24.796;2023-03-23T00:20:51;21.45;;;13.93;;
10667;SDS011;5382;42.136;24.796;2023-03-23T00:23:20;18.00;;;13.48;;
10667;SDS011;5382;42.136;24.796;2023-03-23T00:25:48;23.90;;;14.38;;
10667;SDS011;5382;42.136;24.796;2023-03-23T00:28:18;23.50;;;14.55;;
10667;SDS011;5382;42.136;24.796;2023-03-23T00:30:53;22.90;;;14.57;;
10667;SDS011;5382;42.136;24.796;2023-03-23T00:33:23;24.50;;;14.88;;
10667;SDS011;5382;42.136;24.796;2023-03-23T00:35:49;22.27;;;16.40;;
10667;SDS011;5382;42.136;24.796;2023-03-23T00:38:17;21.35;;;15.88;;
10667;SDS011;5382;42.136;24.796;2023-03-23T00:40:44;21.58;;;16.60;;
10667;SDS011;5382;42.136;24.796;2023-03-23T00:43:12;20.55;;;15.60;;
10667;SDS011;5382;42.136;24.796;2023-03-23T00:45:39;25.30;;;16.00;;
10667;SDS011;5382;42.136;24.796;2023-03-23T00:48:07;24.23;;;17.27;;
10667;SDS011;5382;42.136;24.796;2023-03-23T00:50:34;22.50;;;17.98;;
10667;SDS011;5382;42.136;24.796;2023-03-23T00:53:01;27.55;;;20.40;;
10667;SDS011;5382;42.136;24.796;2023-03-23T00:55:28;21.05;;;15.65;;
10667;SDS011;5382;42.136;24.796;2023-03-23T00:57:55;23.90;;;16.33;;
10667;SDS011;5382;42.136;24.796;2023-03-23T01:00:22;24.92;;;15.10;;
10667;SDS011;5382;42.136;24.796;2023-03-23T01:02:49;18.63;;;14.65;;
10667;SDS011;5382;42.136;24.796;2023-03-23T01:05:18;21.60;;;15.57;;
10667;SDS011;5382;42.136;24.796;2023-03-23T01:07:45;23.27;;;15.50;;
10667;SDS011;5382;42.136;24.796;2023-03-23T01:10:13;21.63;;;15.30;;
10667;SDS011;5382;42.136;24.796;2023-03-23T01:12:43;22.58;;;15.68;;
10667;SDS011;5382;42.136;24.796;2023-03-23T01:15:14;21.65;;;15.18;;
10667;SDS011;5382;42.136;24.796;2023-03-23T01:17:42;22.50;;;16.20;;
10667;SDS011;5382;42.136;24.796;2023-03-23T01:20:11;23.23;;;14.52;;
10667;SDS011;5382;42.136;24.796;2023-03-23T01:22:41;21.55;;;15.85;;
10667;SDS011;5382;42.136;24.796;2023-03-23T01:25:09;21.33;;;13.80;;
10667;SDS011;5382;42.136;24.796;2023-03-23T01:27:37;22.55;;;14.43;;
10667;SDS011;5382;42.136;24.796;2023-03-23T01:30:04;18.92;;;13.15;;
10667;SDS011;5382;42.136;24.796;2023-03-23T01:32:33;20.88;;;14.35;;
10667;SDS011;5382;42.136;24.796;2023-03-23T01:35:00;21.63;;;15.13;;
10667;SDS011;5382;42.136;24.796;2023-03-23T01:37:27;19.33;;;13.77;;
10667;SDS011;5382;42.136;24.796;2023-03-23T01:39:55;21.55;;;14.20;;
10667;SDS011;5382;42.136;24.796;2023-03-23T01:42:23;22.23;;;13.43;;
10667;SDS011;5382;42.136;24.796;2023-03-23T01:47:58;18.08;;;12.65;;
10667;SDS011;5382;42.136;24.796;2023-03-23T01:50:29;22.58;;;13.70;;
10667;SDS011;5382;42.136;24.796;2023-03-23T01:53:02;23.65;;;14.52;;
10667;SDS011;5382;42.136;24.796;2023-03-23T01:55:35;24.40;;;15.20;;
10667;SDS011;5382;42.136;24.796;2023-03-23T01:58:04;24.10;;;14.43;;
10667;SDS011;5382;42.136;24.796;2023-03-23T02:00:34;24.40;;;14.57;;
10667;SDS011;5382;42.136;24.796;2023-03-23T02:03:02;25.73;;;14.43;;
10667;SDS011;5382;42.136;24.796;2023-03-23T02:05:30;21.45;;;14.93;;
10667;SDS011;5382;42.136;24.796;2023-03-23T02:08:00;22.92;;;14.55;;
10667;SDS011;5382;42.136;24.796;2023-03-23T02:10:29;22.30;;;13.70;;
10667;SDS011;5382;42.136;24.796;2023-03-23T02:12:58;20.60;;;14.75;;
10667;SDS011;5382;42.136;24.796;2023-03-23T02:15:27;22.08;;;14.45;;
10667;SDS011;5382;42.136;24.796;2023-03-23T02:18:03;23.55;;;14.85;;
10667;SDS011;5382;42.136;24.796;2023-03-23T02:20:48;20.55;;;14.32;;
10667;SDS011;5382;42.136;24.796;2023-03-23T02:23:49;19.95;;;13.02;;
10667;SDS011;5382;42.136;24.796;2023-03-23T02:26:34;23.25;;;16.08;;
10667;SDS011;5382;42.136;24.796;2023-03-23T02:32:12;22.70;;;14.45;;
10667;SDS011;5382;42.136;24.796;2023-03-23T02:34:50;23.45;;;15.23;;
10667;SDS011;5382;42.136;24.796;2023-03-23T02:37:20;21.85;;;13.70;;
10667;SDS011;5382;42.136;24.796;2023-03-23T02:39:51;25.67;;;14.18;;
10667;SDS011;5382;42.136;24.796;2023-03-23T02:42:22;19.85;;;14.85;;
10667;SDS011;5382;42.136;24.796;2023-03-23T02:44:52;21.30;;;14.38;;
10667;SDS011;5382;42.136;24.796;2023-03-23T02:47:22;21.65;;;15.30;;
10667;SDS011;5382;42.136;24.796;2023-03-23T02:49:53;25.60;;;14.93;;
10667;SDS011;5382;42.136;24.796;2023-03-23T02:52:22;23.02;;;15.45;;
10667;SDS011;5382;42.136;24.796;2023-03-23T02:54:52;23.92;;;15.77;;
10667;SDS011;5382;42.136;24.796;2023-03-23T02:57:21;22.58;;;14.52;;
10667;SDS011;5382;42.136;24.796;2023-03-23T02:59:51;23.60;;;16.67;;
10667;SDS011;5382;42.136;24.796;2023-03-23T03:02:18;26.20;;;17.58;;
10667;SDS011;5382;42.136;24.796;2023-03-23T03:04:52;24.23;;;18.90;;
10667;SDS011;5382;42.136;24.796;2023-03-23T03:07:33;24.45;;;15.90;;
10667;SDS011;5382;42.136;24.796;2023-03-23T03:10:10;24.85;;;16.85;;
10667;SDS011;5382;42.136;24.796;2023-03-23T03:12:46;28.58;;;17.63;;
10667;SDS011;5382;42.136;24.796;2023-03-23T03:15:22;25.55;;;16.52;;
10667;SDS011;5382;42.136;24.796;2023-03-23T03:17:54;25.08;;;14.73;;
10667;SDS011;5382;42.136;24.796;2023-03-23T03:20:27;22.80;;;14.70;;
10667;SDS011;5382;42.136;24.796;2023-03-23T03:22:57;24.63;;;14.75;;
10667;SDS011;5382;42.136;24.796;2023-03-23T03:25:25;27.60;;;15.25;;
10667;SDS011;5382;42.136;24.796;2023-03-23T03:27:53;29.95;;;15.88;;
10667;SDS011;5382;42.136;24.796;2023-03-23T03:30:23;29.95;;;18.35;;
10667;SDS011;5382;42.136;24.796;2023-03-23T03:32:53;29.80;;;18.08;;
10667;SDS011;5382;42.136;24.796;2023-03-23T03:35:20;28.50;;;16.88;;
10667;SDS011;5382;42.136;24.796;2023-03-23T03:37:49;28.65;;;17.23;;
10667;SDS011;5382;42.136;24.796;2023-03-23T03:40:18;31.83;;;16.77;;
10667;SDS011;5382;42.136;24.796;2023-03-23T03:42:47;28.95;;;16.27;;
10667;SDS011;5382;42.136;24.796;2023-03-23T03:45:16;31.08;;;16.98;;
10667;SDS011;5382;42.136;24.796;2023-03-23T03:47:44;29.60;;;17.73;;
10667;SDS011;5382;42.136;24.796;2023-03-23T03:50:11;29.05;;;17.48;;
10667;SDS011;5382;42.136;24.796;2023-03-23T03:52:38;30.88;;;17.70;;
10667;SDS011;5382;42.136;24.796;2023-03-23T03:55:09;28.83;;;17.48;;
10667;SDS011;5382;42.136;24.796;2023-03-23T03:57:37;27.35;;;17.08;;
10667;SDS011;5382;42.136;24.796;2023-03-23T04:00:04;27.30;;;17.35;;
10667;SDS011;5382;42.136;24.796;2023-03-23T04:02:39;28.70;;;17.38;;
10667;SDS011;5382;42.136;24.796;2023-03-23T04:05:12;27.75;;;16.40;;
10667;SDS011;5382;42.136;24.796;2023-03-23T04:07:40;29.00;;;17.80;;
10667;SDS011;5382;42.136;24.796;2023-03-23T04:10:09;26.48;;;17.33;;
10667;SDS011;5382;42.136;24.796;2023-03-23T04:12:38;25.75;;;15.95;;
10667;SDS011;5382;42.136;24.796;2023-03-23T04:15:05;27.48;;;16.90;;
10667;SDS011;5382;42.136;24.796;2023-03-23T04:17:33;24.27;;;16.27;;
10667;SDS011;5382;42.136;24.796;2023-03-23T04:20:00;27.23;;;14.90;;
10667;SDS011;5382;42.136;24.796;2023-03-23T04:22:32;27.60;;;16.33;;
10667;SDS011;5382;42.136;24.796;2023-03-23T04:25:12;25.70;;;15.82;;
10667;SDS011;5382;42.136;24.796;2023-03-23T04:27:39;27.85;;;16.80;;
10667;SDS011;5382;42.136;24.796;2023-03-23T04:30:11;26.00;;;15.65;;
10667;SDS011;5382;42.136;24.796;2023-03-23T04:32:39;25.13;;;15.80;;
10667;SDS011;5382;42.136;24.796;2023-03-23T04:35:07;25.80;;;16.80;;
10667;SDS011;5382;42.136;24.796;2023-03-23T04:37:36;26.48;;;16.35;;
10667;SDS011;5382;42.136;24.796;2023-03-23T04:40:04;24.38;;;15.15;;
10667;SDS011;5382;42.136;24.796;2023-03-23T04:42:37;25.50;;;15.15;;
10667;SDS011;5382;42.136;24.796;2023-03-23T04:45:06;26.70;;;16.90;;
10667;SDS011;5382;42.136;24.796;2023-03-23T04:47:35;22.25;;;16.27;;
10667;SDS011;5382;42.136;24.796;2023-03-23T04:50:06;26.00;;;16.60;;
10667;SDS011;5382;42.136;24.796;2023-03-23T04:52:35;25.08;;;15.23;;
10667;SDS011;5382;42.136;24.796;2023-03-23T04:55:05;26.38;;;16.98;;
10667;SDS011;5382;42.136;24.796;2023-03-23T04:57:34;31.42;;;16.50;;
10667;SDS011;5382;42.136;24.796;2023-03-23T05:00:02;24.98;;;16.05;;
10667;SDS011;5382;42.136;24.796;2023-03-23T05:02:34;25.67;;;16.30;;
10667;SDS011;5382;42.136;24.796;2023-03-23T05:05:01;27.27;;;17.48;;
10667;SDS011;5382;42.136;24.796;2023-03-23T05:07:29;29.83;;;17.98;;
10667;SDS011;5382;42.136;24.796;2023-03-23T05:09:56;28.15;;;18.02;;
10667;SDS011;5382;42.136;24.796;2023-03-23T05:12:22;22.95;;;15.57;;
10667;SDS011;5382;42.136;24.796;2023-03-23T05:14:50;27.35;;;16.95;;
10667;SDS011;5382;42.136;24.796;2023-03-23T05:17:18;23.38;;;15.52;;
10667;SDS011;5382;42.136;24.796;2023-03-23T05:19:45;24.77;;;16.65;;
10667;SDS011;5382;42.136;24.796;2023-03-23T05:22:12;23.67;;;15.95;;
10667;SDS011;5382;42.136;24.796;2023-03-23T05:24:40;24.08;;;15.85;;
10667;SDS011;5382;42.136;24.796;2023-03-23T05:27:07;23.70;;;16.13;;
10667;SDS011;5382;42.136;24.796;2023-03-23T05:29:34;23.80;;;17.65;;
10667;SDS011;5382;42.136;24.796;2023-03-23T05:32:02;26.52;;;16.67;;
10667;SDS011;5382;42.136;24.796;2023-03-23T05:34:32;22.45;;;15.48;;
10667;SDS011;5382;42.136;24.796;2023-03-23T05:36:58;24.40;;;15.73;;
10667;SDS011;5382;42.136;24.796;2023-03-23T05:39:25;30.33;;;18.65;;
10667;SDS011;5382;42.136;24.796;2023-03-23T05:41:53;28.63;;;17.65;;
10667;SDS011;5382;42.136;24.796;2023-03-23T05:44:19;26.90;;;17.02;;
10667;SDS011;5382;42.136;24.796;2023-03-23T05:46:47;27.42;;;16.73;;
10667;SDS011;5382;42.136;24.796;2023-03-23T05:49:14;29.83;;;18.15;;
10667;SDS011;5382;42.136;24.796;2023-03-23T05:51:43;32.28;;;19.05;;
10667;SDS011;5382;42.136;24.796;2023-03-23T05:54:11;27.67;;;18.83;;
10667;SDS011;5382;42.136;24.796;2023-03-23T05:56:39;31.85;;;20.40;;
10667;SDS011;5382;42.136;24.796;2023-03-23T05:59:06;35.33;;;19.02;;
10667;SDS011;5382;42.136;24.796;2023-03-23T06:01:35;29.77;;;20.75;;
10667;SDS011;5382;42.136;24.796;2023-03-23T06:04:02;30.52;;;18.95;;
10667;SDS011;5382;42.136;24.796;2023-03-23T06:06:29;29.80;;;19.27;;
10667;SDS011;5382;42.136;24.796;2023-03-23T06:08:58;27.95;;;18.50;;
10667;SDS011;5382;42.136;24.796;2023-03-23T06:11:26;28.70;;;17.65;;
10667;SDS011;5382;42.136;24.796;2023-03-23T06:13:52;26.50;;;18.02;;
10667;SDS011;5382;42.136;24.796;2023-03-23T06:16:19;25.35;;;16.77;;
10667;SDS011;5382;42.136;24.796;2023-03-23T06:18:46;30.77;;;19.02;;
10667;SDS011;5382;42.136;24.796;2023-03-23T06:21:32;31.95;;;18.52;;
10667;SDS011;5382;42.136;24.796;2023-03-23T06:24:00;30.00;;;18.10;;
10667;SDS011;5382;42.136;24.796;2023-03-23T06:26:30;29.65;;;19.50;;
10667;SDS011;5382;42.136;24.796;2023-03-23T06:28:58;32.40;;;18.95;;
10667;SDS011;5382;42.136;24.796;2023-03-23T06:31:26;28.13;;;18.33;;
10667;SDS011;5382;42.136;24.796;2023-03-23T06:33:54;28.80;;;17.17;;
10667;SDS011;5382;42.136;24.796;2023-03-23T06:36:21;27.55;;;18.00;;
10667;SDS011;5382;42.136;24.796;2023-03-23T06:38:49;28.13;;;17.08;;
10667;SDS011;5382;42.136;24.796;2023-03-23T06:41:17;26.48;;;14.85;;
10667;SDS011;5382;42.136;24.796;2023-03-23T06:43:44;28.67;;;16.35;;
10667;SDS011;5382;42.136;24.796;2023-03-23T06:46:11;25.98;;;15.00;;
10667;SDS011;5382;42.136;24.796;2023-03-23T06:48:38;25.58;;;17.48;;
10667;SDS011;5382;42.136;24.796;2023-03-23T06:51:05;26.40;;;17.33;;
10667;SDS011;5382;42.136;24.796;2023-03-23T06:53:33;33.95;;;17.50;;
10667;SDS011;5382;42.136;24.796;2023-03-23T06:56:00;26.83;;;17.60;;
10667;SDS011;5382;42.136;24.796;2023-03-23T06:58:28;23.63;;;15.98;;
10667;SDS011;5382;42.136;24.796;2023-03-23T07:00:55;22.52;;;15.20;;
10667;SDS011;5382;42.136;24.796;2023-03-23T07:03:23;23.50;;;14.30;;
10667;SDS011;5382;42.136;24.796;2023-03-23T07:05:50;24.90;;;15.55;;
10667;SDS011;5382;42.136;24.796;2023-03-23T07:08:17;23.40;;;15.63;;
10667;SDS011;5382;42.136;24.796;2023-03-23T07:10:44;26.13;;;16.85;;
10667;SDS011;5382;42.136;24.796;2023-03-23T07:13:11;24.33;;;16.55;;
10667;SDS011;5382;42.136;24.796;2023-03-23T07:15:39;23.67;;;16.45;;
10667;SDS011;5382;42.136;24.796;2023-03-23T07:18:06;24.88;;;14.13;;
10667;SDS011;5382;42.136;24.796;2023-03-23T07:20:33;26.30;;;16.58;;
10667;SDS011;5382;42.136;24.796;2023-03-23T07:23:00;24.80;;;15.27;;
10667;SDS011;5382;42.136;24.796;2023-03-23T07:25:27;24.73;;;15.65;;
10667;SDS011;5382;42.136;24.796;2023-03-23T07:27:54;32.47;;;17.83;;
10667;SDS011;5382;42.136;24.796;2023-03-23T07:30:21;25.20;;;16.10;;
10667;SDS011;5382;42.136;24.796;2023-03-23T07:32:49;26.85;;;15.20;;
10667;SDS011;5382;42.136;24.796;2023-03-23T07:35:16;24.60;;;15.57;;
10667;SDS011;5382;42.136;24.796;2023-03-23T07:37:43;25.95;;;16.38;;
10667;SDS011;5382;42.136;24.796;2023-03-23T07:40:10;24.48;;;16.48;;
10667;SDS011;5382;42.136;24.796;2023-03-23T07:42:41;20.02;;;14.05;;
10667;SDS011;5382;42.136;24.796;2023-03-23T07:45:09;27.23;;;16.40;;
10667;SDS011;5382;42.136;24.796;2023-03-23T07:47:36;26.75;;;15.98;;
10667;SDS011;5382;42.136;24.796;2023-03-23T07:50:05;30.75;;;16.55;;
10667;SDS011;5382;42.136;24.796;2023-03-23T07:52:33;22.98;;;15.15;;
10667;SDS011;5382;42.136;24.796;2023-03-23T07:55:01;28.95;;;17.20;;
10667;SDS011;5382;42.136;24.796;2023-03-23T07:57:28;26.50;;;16.35;;
10667;SDS011;5382;42.136;24.796;2023-03-23T07:59:55;30.98;;;18.70;;
10667;SDS011;5382;42.136;24.796;2023-03-23T08:02:23;32.88;;;19.48;;
10667;SDS011;5382;42.136;24.796;2023-03-23T08:04:51;28.58;;;21.85;;
10667;SDS011;5382;42.136;24.796;2023-03-23T08:07:20;28.13;;;21.30;;
10667;SDS011;5382;42.136;24.796;2023-03-23T08:09:47;31.55;;;23.73;;
10667;SDS011;5382;42.136;24.796;2023-03-23T08:12:14;27.77;;;21.88;;
10667;SDS011;5382;42.136;24.796;2023-03-23T08:14:41;33.22;;;17.25;;
10667;SDS011;5382;42.136;24.796;2023-03-23T08:17:08;30.38;;;21.90;;
10667;SDS011;5382;42.136;24.796;2023-03-23T08:19:35;28.85;;;22.65;;
10667;SDS011;5382;42.136;24.796;2023-03-23T08:22:03;29.30;;;21.15;;
10667;SDS011;5382;42.136;24.796;2023-03-23T08:24:32;25.65;;;16.55;;
10667;SDS011;5382;42.136;24.796;2023-03-23T08:26:59;30.65;;;22.10;;
10667;SDS011;5382;42.136;24.796;2023-03-23T08:29:26;28.60;;;22.27;;
10667;SDS011;5382;42.136;24.796;2023-03-23T08:31:53;28.20;;;22.50;;
10667;SDS011;5382;42.136;24.796;2023-03-23T08:34:20;36.72;;;23.85;;
10667;SDS011;5382;42.136;24.796;2023-03-23T08:36:47;29.17;;;18.92;;
10667;SDS011;5382;42.136;24.796;2023-03-23T08:39:16;31.27;;;22.20;;
10667;SDS011;5382;42.136;24.796;2023-03-23T08:41:45;28.73;;;20.98;;
10667;SDS011;5382;42.136;24.796;2023-03-23T08:44:12;28.20;;;20.33;;
10667;SDS011;5382;42.136;24.796;2023-03-23T08:46:39;28.85;;;21.33;;
10667;SDS011;5382;42.136;24.796;2023-03-23T08:49:06;29.05;;;20.92;;
10667;SDS011;5382;42.136;24.796;2023-03-23T08:51:33;29.13;;;21.23;;
10667;SDS011;5382;42.136;24.796;2023-03-23T08:54:01;30.90;;;20.20;;
10667;SDS011;5382;42.136;24.796;2023-03-23T08:56:27;26.55;;;18.67;;
10667;SDS011;5382;42.136;24.796;2023-03-23T08:58:56;29.55;;;21.75;;
10667;SDS011;5382;42.136;24.796;2023-03-23T09:01:22;28.40;;;21.00;;
10667;SDS011;5382;42.136;24.796;2023-03-23T09:03:49;30.48;;;22.08;;
10667;SDS011;5382;42.136;24.796;2023-03-23T09:06:16;29.00;;;20.00;;
10667;SDS011;5382;42.136;24.796;2023-03-23T09:08:43;22.48;;;18.50;;
10667;SDS011;5382;42.136;24.796;2023-03-23T09:11:11;27.90;;;19.92;;
10667;SDS011;5382;42.136;24.796;2023-03-23T09:13:38;22.70;;;18.58;;
10667;SDS011;5382;42.136;24.796;2023-03-23T09:16:07;23.23;;;19.90;;
10667;SDS011;5382;42.136;24.796;2023-03-23T09:18:35;23.52;;;18.50;;
10667;SDS011;5382;42.136;24.796;2023-03-23T09:21:03;22.08;;;18.30;;
10667;SDS011;5382;42.136;24.796;2023-03-23T09:23:31;21.60;;;17.52;;
10667;SDS011;5382;42.136;24.796;2023-03-23T09:25:59;24.23;;;18.15;;
10667;SDS011;5382;42.136;24.796;2023-03-23T09:28:26;20.67;;;16.42;;
10667;SDS011;5382;42.136;24.796;2023-03-23T09:30:54;22.70;;;16.35;;
10667;SDS011;5382;42.136;24.796;2023-03-23T09:33:25;25.73;;;16.55;;
10667;SDS011;5382;42.136;24.796;2023-03-23T09:35:54;19.23;;;15.20;;
10667;SDS011;5382;42.136;24.796;2023-03-23T09:38:21;17.02;;;14.35;;
10667;SDS011;5382;42.136;24.796;2023-03-23T09:40:48;18.13;;;14.70;;
10667;SDS011;5382;42.136;24.796;2023-03-23T09:46:15;18.67;;;15.25;;
10667;SDS011;5382;42.136;24.796;2023-03-23T09:48:52;21.45;;;16.42;;
10667;SDS011;5382;42.136;24.796;2023-03-23T09:51:24;18.35;;;15.35;;
10667;SDS011;5382;42.136;24.796;2023-03-23T09:54:01;17.30;;;14.68;;
10667;SDS011;5382;42.136;24.796;2023-03-23T09:56:32;16.65;;;14.80;;
10667;SDS011;5382;42.136;24.796;2023-03-23T09:59:02;20.25;;;15.98;;
10667;SDS011;5382;42.136;24.796;2023-03-23T10:01:39;18.00;;;13.40;;
10667;SDS011;5382;42.136;24.796;2023-03-23T10:04:12;17.60;;;14.05;;
10667;SDS011;5382;42.136;24.796;2023-03-23T10:06:45;15.10;;;11.00;;
10667;SDS011;5382;42.136;24.796;2023-03-23T10:09:15;11.73;;;9.55;;
10667;SDS011;5382;42.136;24.796;2023-03-23T10:11:47;14.32;;;10.95;;
10667;SDS011;5382;42.136;24.796;2023-03-23T10:14:28;13.00;;;10.88;;
10667;SDS011;5382;42.136;24.796;2023-03-23T10:17:04;10.68;;;9.40;;
10667;SDS011;5382;42.136;24.796;2023-03-23T10:19:44;9.65;;;8.73;;
10667;SDS011;5382;42.136;24.796;2023-03-23T10:22:17;8.45;;;7.45;;
10667;SDS011;5382;42.136;24.796;2023-03-23T10:24:50;7.47;;;6.68;;
10667;SDS011;5382;42.136;24.796;2023-03-23T10:27:23;8.27;;;6.43;;
10667;SDS011;5382;42.136;24.796;2023-03-23T10:29:55;9.23;;;7.03;;
10667;SDS011;5382;42.136;24.796;2023-03-23T10:32:39;7.18;;;6.20;;
10667;SDS011;5382;42.136;24.796;2023-03-23T10:35:12;8.85;;;6.32;;
10667;SDS011;5382;42.136;24.796;2023-03-23T10:37:44;6.13;;;5.43;;
10667;SDS011;5382;42.136;24.796;2023-03-23T10:40:16;7.53;;;6.03;;
10667;SDS011;5382;42.136;24.796;2023-03-23T10:42:46;7.10;;;6.28;;
10667;SDS011;5382;42.136;24.796;2023-03-23T10:45:16;5.75;;;5.25;;
10667;SDS011;5382;42.136;24.796;2023-03-23T10:47:47;6.40;;;5.50;;
10667;SDS011;5382;42.136;24.796;2023-03-23T10:50:22;6.70;;;6.00;;
10667;SDS011;5382;42.136;24.796;2023-03-23T10:52:53;5.20;;;4.68;;
10667;SDS011;5382;42.136;24.796;2023-03-23T10:55:23;5.45;;;4.95;;
10667;SDS011;5382;42.136;24.796;2023-03-23T10:58:01;8.30;;;4.28;;
10667;SDS011;5382;42.136;24.796;2023-03-23T11:00:30;4.38;;;3.72;;
10667;SDS011;5382;42.136;24.796;2023-03-23T11:02:58;5.20;;;4.32;;
10667;SDS011;5382;42.136;24.796;2023-03-23T11:05:34;3.90;;;3.60;;
10667;SDS011;5382;42.136;24.796;2023-03-23T11:08:03;5.72;;;4.15;;
10667;SDS011;5382;42.136;24.796;2023-03-23T11:10:39;4.72;;;4.32;;
10667;SDS011;5382;42.136;24.796;2023-03-23T11:13:10;4.68;;;4.13;;
10667;SDS011;5382;42.136;24.796;2023-03-23T11:15:40;4.53;;;4.13;;
10667;SDS011;5382;42.136;24.796;2023-03-23T11:18:10;4.72;;;4.32;;
10667;SDS011;5382;42.136;24.796;2023-03-23T11:20:40;5.03;;;4.63;;
10667;SDS011;5382;42.136;24.796;2023-03-23T11:23:10;5.57;;;4.97;;
10667;SDS011;5382;42.136;24.796;2023-03-23T11:25:53;5.50;;;4.95;;
10667;SDS011;5382;42.136;24.796;2023-03-23T11:28:29;5.03;;;4.53;;
10667;SDS011;5382;42.136;24.796;2023-03-23T11:30:59;8.20;;;5.07;;
10667;SDS011;5382;42.136;24.796;2023-03-23T11:33:30;6.07;;;5.47;;
10667;SDS011;5382;42.136;24.796;2023-03-23T11:36:05;6.68;;;5.97;;
10667;SDS011;5382;42.136;24.796;2023-03-23T11:38:33;7.28;;;6.57;;
10667;SDS011;5382;42.136;24.796;2023-03-23T11:41:01;7.10;;;6.25;;
10667;SDS011;5382;42.136;24.796;2023-03-23T11:43:38;9.40;;;6.25;;
10667;SDS011;5382;42.136;24.796;2023-03-23T11:46:09;8.90;;;8.00;;
10667;SDS011;5382;42.136;24.796;2023-03-23T11:48:47;9.68;;;8.68;;
10667;SDS011;5382;42.136;24.796;2023-03-23T11:51:24;12.05;;;8.80;;
10667;SDS011;5382;42.136;24.796;2023-03-23T11:53:58;9.40;;;8.50;;
10667;SDS011;5382;42.136;24.796;2023-03-23T11:56:31;9.43;;;8.45;;
10667;SDS011;5382;42.136;24.796;2023-03-23T11:59:01;9.80;;;7.20;;
10667;SDS011;5382;42.136;24.796;2023-03-23T12:01:37;8.02;;;7.28;;
10667;SDS011;5382;42.136;24.796;2023-03-23T12:04:22;12.07;;;7.03;;
10667;SDS011;5382;42.136;24.796;2023-03-23T12:06:59;9.00;;;7.45;;
10667;SDS011;5382;42.136;24.796;2023-03-23T12:09:43;8.15;;;6.90;;
10667;SDS011;5382;42.136;24.796;2023-03-23T12:12:19;8.90;;;6.00;;
10667;SDS011;5382;42.136;24.796;2023-03-23T12:14:54;6.38;;;5.78;;
10667;SDS011;5382;42.136;24.796;2023-03-23T12:17:32;5.95;;;5.35;;
10667;SDS011;5382;42.136;24.796;2023-03-23T12:20:12;6.30;;;5.70;;
10667;SDS011;5382;42.136;24.796;2023-03-23T12:22:58;5.63;;;5.03;;
10667;SDS011;5382;42.136;24.796;2023-03-23T12:25:47;5.85;;;5.20;;
10667;SDS011;5382;42.136;24.796;2023-03-23T12:28:26;5.22;;;4.82;;
10667;SDS011;5382;42.136;24.796;2023-03-23T12:31:03;4.63;;;4.22;;
10667;SDS011;5382;42.136;24.796;2023-03-23T12:33:41;4.28;;;3.88;;
10667;SDS011;5382;42.136;24.796;2023-03-23T12:36:18;4.45;;;4.03;;
10667;SDS011;5382;42.136;24.796;2023-03-23T12:38:57;5.47;;;4.50;;
10667;SDS011;5382;42.136;24.796;2023-03-23T12:41:38;4.38;;;3.97;;
10667;SDS011;5382;42.136;24.796;2023-03-23T12:44:12;4.38;;;3.83;;
10667;SDS011;5382;42.136;24.796;2023-03-23T12:46:51;5.38;;;4.38;;
10667;SDS011;5382;42.136;24.796;2023-03-23T12:49:29;6.45;;;4.32;;
10667;SDS011;5382;42.136;24.796;2023-03-23T12:52:02;4.90;;;4.50;;
10667;SDS011;5382;42.136;24.796;2023-03-23T12:54:42;4.63;;;4.13;;
10667;SDS011;5382;42.136;24.796;2023-03-23T12:57:18;4.22;;;3.83;;
10667;SDS011;5382;42.136;24.796;2023-03-23T12:59:53;4.95;;;4.00;;
10667;SDS011;5382;42.136;24.796;2023-03-23T13:02:23;4.65;;;4.20;;
10667;SDS011;5382;42.136;24.796;2023-03-23T13:04:57;3.58;;;3.28;;
10667;SDS011;5382;42.136;24.796;2023-03-23T13:07:30;3.83;;;3.20;;
10667;SDS011;5382;42.136;24.796;2023-03-23T13:10:03;5.10;;;3.75;;
10667;SDS011;5382;42.136;24.796;2023-03-23T13:12:39;9.65;;;4.22;;
10667;SDS011;5382;42.136;24.796;2023-03-23T13:15:13;4.55;;;3.65;;
10667;SDS011;5382;42.136;24.796;2023-03-23T13:17:49;3.67;;;3.38;;
10667;SDS011;5382;42.136;24.796;2023-03-23T13:20:30;3.83;;;3.38;;
10667;SDS011;5382;42.136;24.796;2023-03-23T13:23:05;3.20;;;2.90;;
10667;SDS011;5382;42.136;24.796;2023-03-23T13:25:47;3.22;;;2.78;;
10667;SDS011;5382;42.136;24.796;2023-03-23T13:28:17;3.05;;;2.78;;
10667;SDS011;5382;42.136;24.796;2023-03-23T13:30:57;3.03;;;2.50;;
10667;SDS011;5382;42.136;24.796;2023-03-23T13:33:29;2.78;;;2.55;;
10667;SDS011;5382;42.136;24.796;2023-03-23T13:36:02;3.45;;;3.15;;
10667;SDS011;5382;42.136;24.796;2023-03-23T13:38:33;5.05;;;3.05;;
10667;SDS011;5382;42.136;24.796;2023-03-23T13:41:07;3.13;;;2.83;;
10667;SDS011;5382;42.136;24.796;2023-03-23T13:43:36;3.85;;;3.17;;
10667;SDS011;5382;42.136;24.796;2023-03-23T13:46:12;3.55;;;3.10;;
10667;SDS011;5382;42.136;24.796;2023-03-23T13:49:02;3.50;;;3.13;;
10667;SDS011;5382;42.136;24.796;2023-03-23T13:51:33;3.40;;;3.10;;
10667;SDS011;5382;42.136;24.796;2023-03-23T13:54:19;3.72;;;2.80;;
10667;SDS011;5382;42.136;24.796;2023-03-23T13:56:54;3.80;;;3.08;;
10667;SDS011;5382;42.136;24.796;2023-03-23T13:59:33;3.92;;;2.95;;
10667;SDS011;5382;42.136;24.796;2023-03-23T14:02:26;3.65;;;3.25;;
10667;SDS011;5382;42.136;24.796;2023-03-23T14:04:56;3.40;;;3.20;;
10667;SDS011;5382;42.136;24.796;2023-03-23T14:07:23;2.90;;;2.70;;
10667;SDS011;5382;42.136;24.796;2023-03-23T14:09:50;3.22;;;2.95;;
10667;SDS011;5382;42.136;24.796;2023-03-23T14:12:21;3.03;;;2.83;;
10667;SDS011;5382;42.136;24.796;2023-03-23T14:14:55;2.67;;;2.47;;
10667;SDS011;5382;42.136;24.796;2023-03-23T14:17:33;5.15;;;2.80;;
10667;SDS011;5382;42.136;24.796;2023-03-23T14:20:06;3.50;;;3.20;;
10667;SDS011;5382;42.136;24.796;2023-03-23T14:22:37;3.30;;;2.92;;
10667;SDS011;5382;42.136;24.796;2023-03-23T14:25:09;3.90;;;3.25;;
10667;SDS011;5382;42.136;24.796;2023-03-23T14:27:41;3.72;;;2.72;;
10667;SDS011;5382;42.136;24.796;2023-03-23T14:30:12;5.47;;;3.15;;
10667;SDS011;5382;42.136;24.796;2023-03-23T14:32:41;3.15;;;2.78;;
10667;SDS011;5382;42.136;24.796;2023-03-23T14:35:13;10.40;;;3.30;;
10667;SDS011;5382;42.136;24.796;2023-03-23T14:37:46;3.50;;;2.92;;
10667;SDS011;5382;42.136;24.796;2023-03-23T14:40:14;3.60;;;3.25;;
10667;SDS011;5382;42.136;24.796;2023-03-23T14:42:44;3.42;;;2.97;;
10667;SDS011;5382;42.136;24.796;2023-03-23T14:45:13;3.33;;;3.03;;
10667;SDS011;5382;42.136;24.796;2023-03-23T14:47:42;3.75;;;3.30;;
10667;SDS011;5382;42.136;24.796;2023-03-23T14:50:25;3.28;;;2.97;;
10667;SDS011;5382;42.136;24.796;2023-03-23T14:52:56;3.03;;;2.83;;
10667;SDS011;5382;42.136;24.796;2023-03-23T14:55:25;3.65;;;2.90;;
10667;SDS011;5382;42.136;24.796;2023-03-23T14:57:57;2.92;;;2.72;;